createdAt,value
2023-01-17T00:01:45.412Z,100.00
2023-01-17T00:04:30.973Z,100.00
2023-01-17T00:07:16.499Z,100.00
2023-01-17T00:09:58.595Z,100.00
2023-01-17T00:12:27.843Z,100.00
2023-01-17T00:14:56.263Z,100.00
2023-01-17T00:17:24.128Z,100.00
2023-01-17T00:20:09.744Z,100.00
2023-01-17T00:22:55.647Z,100.00
2023-01-17T00:25:47.526Z,100.00
2023-01-17T00:28:14.181Z,100.00
2023-01-17T00:30:40.681Z,100.00
2023-01-17T00:33:07.141Z,100.00
2023-01-17T00:35:34.276Z,100.00
2023-01-17T00:38:15.305Z,100.00
2023-01-17T00:40:43.682Z,100.00
2023-01-17T00:43:30.389Z,100.00
2023-01-17T00:46:15.706Z,100.00
2023-01-17T00:49:01.079Z,100.00
2023-01-17T00:51:47.955Z,100.00
2023-01-17T00:54:32.744Z,100.00
2023-01-17T00:57:18.226Z,100.00
2023-01-17T01:00:03.728Z,100.00
2023-01-17T01:02:49.476Z,100.00
2023-01-17T01:05:34.793Z,100.00
2023-01-17T01:08:20.482Z,100.00
2023-01-17T01:11:06.993Z,100.00
2023-01-17T01:13:52.941Z,100.00
2023-01-17T01:16:38.110Z,100.00
2023-01-17T01:19:23.702Z,100.00
2023-01-17T01:22:08.581Z,100.00
2023-01-17T01:24:53.425Z,100.00
2023-01-17T01:27:38.456Z,100.00
2023-01-17T01:30:23.726Z,100.00
2023-01-17T01:33:08.589Z,100.00
2023-01-17T01:35:36.618Z,100.00
2023-01-17T01:38:03.172Z,100.00
2023-01-17T01:40:29.914Z,100.00
2023-01-17T01:42:58.539Z,100.00
2023-01-17T01:45:30.110Z,100.00
2023-01-17T01:48:06.015Z,100.00
2023-01-17T01:50:36.087Z,100.00
2023-01-17T01:53:05.226Z,100.00
2023-01-17T01:55:51.774Z,100.00
2023-01-17T01:58:22.250Z,100.00
2023-01-17T02:00:49.364Z,100.00
2023-01-17T02:03:29.373Z,100.00
2023-01-17T02:06:01.494Z,100.00
2023-01-17T02:08:28.182Z,100.00
2023-01-17T02:10:56.002Z,100.00
2023-01-17T02:13:22.661Z,100.00
2023-01-17T02:16:05.435Z,100.00
2023-01-17T02:19:05.463Z,100.00
2023-01-17T02:21:39.165Z,100.00
2023-01-17T02:24:53.283Z,100.00
2023-01-17T02:27:39.154Z,100.00
2023-01-17T02:30:27.197Z,100.00
2023-01-17T02:33:02.941Z,100.00
2023-01-17T02:35:49.017Z,100.00
2023-01-17T02:38:31.605Z,100.00
2023-01-17T02:41:09.084Z,100.00
2023-01-17T02:43:37.345Z,100.00
2023-01-17T02:46:04.074Z,100.00
2023-01-17T02:48:32.328Z,100.00
2023-01-17T02:51:26.898Z,100.00
2023-01-17T02:53:53.300Z,100.00
2023-01-17T02:56:36.186Z,100.00
2023-01-17T02:59:20.966Z,100.00
2023-01-17T03:02:25.646Z,100.00
2023-01-17T03:05:05.206Z,100.00
2023-01-17T03:07:33.039Z,100.00
2023-01-17T03:10:05.502Z,100.00
2023-01-17T03:12:35.489Z,100.00
2023-01-17T03:15:02.009Z,100.00
2023-01-17T03:17:32.347Z,100.00
2023-01-17T03:19:58.888Z,100.00
2023-01-17T03:22:25.396Z,100.00
2023-01-17T03:24:51.913Z,100.00
2023-01-17T03:27:18.336Z,100.00
2023-01-17T03:29:44.771Z,100.00
2023-01-17T03:32:11.203Z,100.00
2023-01-17T03:34:37.603Z,100.00
2023-01-17T03:37:04.237Z,100.00
2023-01-17T03:39:30.656Z,100.00
2023-01-17T03:41:57.141Z,100.00
2023-01-17T03:44:23.568Z,100.00
2023-01-17T03:46:50.073Z,100.00
2023-01-17T03:49:16.755Z,100.00
2023-01-17T03:51:43.354Z,100.00
2023-01-17T03:54:09.948Z,100.00
2023-01-17T03:56:36.407Z,100.00
2023-01-17T03:59:03.177Z,100.00
2023-01-17T04:01:29.715Z,100.00
2023-01-17T04:03:56.200Z,100.00
2023-01-17T04:06:22.791Z,100.00
2023-01-17T04:08:49.508Z,100.00
2023-01-17T04:11:16.020Z,100.00
2023-01-17T04:13:42.521Z,100.00
2023-01-17T04:16:16.074Z,100.00
2023-01-17T04:18:43.085Z,100.00
2023-01-17T04:21:09.536Z,100.00
2023-01-17T04:23:36.050Z,100.00
2023-01-17T04:26:03.656Z,100.00
2023-01-17T04:28:30.257Z,100.00
2023-01-17T04:31:00.372Z,100.00
2023-01-17T04:33:27.005Z,100.00
2023-01-17T04:35:54.213Z,100.00
2023-01-17T04:38:21.489Z,100.00
2023-01-17T04:40:48.618Z,100.00
2023-01-17T04:43:15.888Z,100.00
2023-01-17T04:45:42.816Z,100.00
2023-01-17T04:48:12.475Z,100.00
2023-01-17T04:50:39.823Z,100.00
2023-01-17T04:53:06.306Z,100.00
2023-01-17T04:55:32.773Z,100.00
2023-01-17T04:57:59.292Z,100.00
2023-01-17T05:00:25.747Z,100.00
2023-01-17T05:02:52.340Z,100.00
2023-01-17T05:05:18.764Z,100.00
2023-01-17T05:07:53.475Z,100.00
2023-01-17T05:10:19.973Z,100.00
2023-01-17T05:12:53.932Z,100.00
2023-01-17T05:15:20.601Z,100.00
2023-01-17T05:17:47.049Z,100.00
2023-01-17T05:20:13.581Z,100.00
2023-01-17T05:22:40.098Z,100.00
2023-01-17T05:25:07.182Z,100.00
2023-01-17T05:27:33.701Z,100.00
2023-01-17T05:30:00.189Z,100.00
2023-01-17T05:32:26.638Z,100.00
2023-01-17T05:34:53.108Z,100.00
2023-01-17T05:37:19.529Z,100.00
2023-01-17T05:39:45.974Z,100.00
2023-01-17T05:42:12.425Z,100.00
2023-01-17T05:44:38.912Z,100.00
2023-01-17T05:47:05.447Z,100.00
2023-01-17T05:49:31.951Z,100.00
2023-01-17T05:51:58.503Z,100.00
2023-01-17T05:54:25.485Z,100.00
2023-01-17T05:56:51.929Z,100.00
2023-01-17T05:59:28.545Z,100.00
2023-01-17T06:02:02.687Z,100.00
2023-01-17T06:04:29.227Z,100.00
2023-01-17T06:06:55.680Z,100.00
2023-01-17T06:09:22.145Z,100.00
2023-01-17T06:11:48.625Z,100.00
2023-01-17T06:14:15.075Z,100.00
2023-01-17T06:16:41.696Z,100.00
2023-01-17T06:19:09.449Z,100.00
2023-01-17T06:21:35.947Z,100.00
2023-01-17T06:24:04.241Z,100.00
2023-01-17T06:26:30.911Z,100.00
2023-01-17T06:28:57.502Z,100.00
2023-01-17T06:31:24.035Z,100.00
2023-01-17T06:33:50.593Z,100.00
2023-01-17T06:36:17.065Z,100.00
2023-01-17T06:38:43.581Z,100.00
2023-01-17T06:41:10.067Z,100.00
2023-01-17T06:43:36.551Z,100.00
2023-01-17T06:46:03.124Z,100.00
2023-01-17T06:48:29.730Z,100.00
2023-01-17T06:50:57.944Z,100.00
2023-01-17T06:53:24.496Z,100.00
2023-01-17T06:55:52.476Z,100.00
2023-01-17T06:58:18.952Z,100.00
2023-01-17T07:00:45.761Z,100.00
2023-01-17T07:03:24.274Z,100.00
2023-01-17T07:05:51.650Z,100.00
2023-01-17T07:08:19.190Z,100.00
2023-01-17T07:10:47.565Z,100.00
2023-01-17T07:13:14.434Z,100.00
2023-01-17T07:15:40.940Z,100.00
2023-01-17T07:18:07.833Z,100.00
2023-01-17T07:20:34.405Z,100.00
2023-01-17T07:23:00.856Z,100.00
2023-01-17T07:25:27.843Z,100.00
2023-01-17T07:27:57.465Z,100.00
2023-01-17T07:30:24.817Z,100.00
2023-01-17T07:32:55.266Z,100.00
2023-01-17T07:35:26.651Z,100.00
2023-01-17T07:37:54.348Z,100.00
2023-01-17T07:40:22.505Z,100.00
2023-01-17T07:42:49.188Z,100.00
2023-01-17T07:45:16.713Z,100.00
2023-01-17T07:47:43.297Z,100.00
2023-01-17T07:50:10.436Z,100.00
2023-01-17T07:52:36.975Z,100.00
2023-01-17T07:55:03.907Z,100.00
2023-01-17T07:57:30.491Z,100.00
2023-01-17T07:59:57.023Z,100.00
2023-01-17T08:02:23.874Z,100.00
2023-01-17T08:04:50.358Z,100.00
2023-01-17T08:07:16.938Z,100.00
2023-01-17T08:09:44.267Z,100.00
2023-01-17T08:12:10.819Z,100.00
2023-01-17T08:14:37.530Z,100.00
2023-01-17T08:17:06.196Z,100.00
2023-01-17T08:19:32.827Z,100.00
2023-01-17T08:21:59.465Z,100.00
2023-01-17T08:24:25.961Z,100.00
2023-01-17T08:26:54.938Z,100.00
2023-01-17T08:29:22.000Z,100.00
2023-01-17T08:31:48.770Z,100.00
2023-01-17T08:34:15.759Z,100.00
2023-01-17T08:36:43.996Z,100.00
2023-01-17T08:39:12.897Z,100.00
2023-01-17T08:41:39.482Z,100.00
2023-01-17T08:44:06.122Z,100.00
2023-01-17T08:46:32.984Z,100.00
2023-01-17T08:49:00.034Z,100.00
2023-01-17T08:51:27.624Z,100.00
2023-01-17T08:53:55.639Z,100.00
2023-01-17T08:56:26.807Z,100.00
2023-01-17T08:58:53.543Z,100.00
2023-01-17T09:01:20.267Z,100.00
2023-01-17T09:03:49.521Z,100.00
2023-01-17T09:06:16.081Z,100.00
2023-01-17T09:08:46.930Z,100.00
2023-01-17T09:11:16.396Z,100.00
2023-01-17T09:13:42.978Z,100.00
2023-01-17T09:16:10.164Z,100.00
2023-01-17T09:18:37.303Z,100.00
2023-01-17T09:21:12.110Z,100.00
2023-01-17T09:23:38.742Z,100.00
2023-01-17T09:26:07.980Z,100.00
2023-01-17T09:28:41.002Z,100.00
2023-01-17T09:31:08.616Z,100.00
2023-01-17T09:33:35.809Z,100.00
2023-01-17T09:36:04.425Z,100.00
2023-01-17T09:38:32.739Z,100.00
2023-01-17T09:41:01.457Z,100.00
2023-01-17T09:43:40.040Z,100.00
2023-01-17T09:46:22.667Z,100.00
2023-01-17T09:48:56.381Z,100.00
2023-01-17T09:51:27.109Z,100.00
2023-01-17T09:53:54.852Z,100.00
2023-01-17T09:56:29.613Z,100.00
2023-01-17T09:59:11.337Z,100.00
2023-01-17T10:01:52.932Z,100.00
2023-01-17T10:04:51.281Z,100.00
2023-01-17T10:07:38.901Z,100.00
2023-01-17T10:10:31.590Z,100.00
2023-01-17T10:13:08.779Z,100.00
2023-01-17T10:15:35.201Z,100.00
2023-01-17T10:18:29.922Z,100.00
2023-01-17T10:21:15.594Z,100.00
2023-01-17T10:23:59.975Z,100.00
2023-01-17T10:26:27.060Z,100.00
2023-01-17T10:29:00.725Z,100.00
2023-01-17T10:31:34.870Z,100.00
2023-01-17T10:34:12.753Z,100.00
2023-01-17T10:36:44.513Z,100.00
2023-01-17T10:39:20.116Z,100.00
2023-01-17T10:41:57.996Z,100.00
2023-01-17T10:44:37.325Z,100.00
2023-01-17T10:47:18.251Z,100.00
2023-01-17T10:49:49.109Z,100.00
2023-01-17T10:52:37.071Z,100.00
2023-01-17T10:55:15.613Z,100.00
2023-01-17T10:57:48.409Z,100.00
2023-01-17T11:00:28.764Z,100.00
2023-01-17T11:02:55.742Z,100.00
2023-01-17T11:05:26.613Z,100.00
2023-01-17T11:08:02.808Z,100.00
2023-01-17T11:10:43.481Z,100.00
2023-01-17T11:13:32.253Z,100.00
2023-01-17T11:16:02.867Z,100.00
2023-01-17T11:18:31.882Z,100.00
2023-01-17T11:21:09.480Z,100.00
2023-01-17T11:23:36.078Z,100.00
2023-01-17T11:26:05.985Z,100.00
2023-01-17T11:28:35.196Z,100.00
2023-01-17T11:31:07.502Z,100.00
2023-01-17T11:33:45.912Z,100.00
2023-01-17T11:36:24.706Z,100.00
2023-01-17T11:39:05.176Z,100.00
2023-01-17T11:41:40.745Z,100.00
2023-01-17T11:44:24.123Z,100.00
2023-01-17T11:47:16.973Z,100.00
2023-01-17T11:49:46.369Z,100.00
2023-01-17T11:52:24.328Z,100.00
2023-01-17T11:54:55.623Z,100.00
2023-01-17T11:57:25.048Z,100.00
2023-01-17T12:00:03.753Z,100.00
2023-01-17T12:03:18.787Z,100.00
2023-01-17T12:06:13.838Z,100.00
2023-01-17T12:09:03.005Z,100.00
2023-01-17T12:12:02.022Z,100.00
2023-01-17T12:15:08.253Z,100.00
2023-01-17T18:48:37.806Z,99.53
2023-01-17T18:51:13.235Z,99.76
2023-01-17T18:53:41.247Z,99.49
2023-01-17T18:56:14.517Z,100.00
2023-01-17T18:58:42.971Z,100.00
2023-01-17T19:01:10.951Z,100.00
2023-01-17T19:03:39.481Z,100.00
2023-01-17T19:06:07.166Z,100.00
2023-01-17T19:08:35.040Z,100.00
2023-01-17T19:11:04.113Z,100.00
2023-01-17T19:13:32.624Z,100.00
2023-01-17T19:16:00.885Z,100.00
2023-01-17T19:18:27.627Z,100.00
2023-01-17T19:20:54.179Z,99.85
2023-01-17T19:23:21.613Z,100.00
2023-01-17T19:25:53.338Z,99.99
2023-01-17T19:28:19.696Z,100.00
2023-01-17T19:30:46.176Z,100.00
2023-01-17T19:33:12.905Z,100.00
2023-01-17T19:35:39.423Z,99.79
2023-01-17T19:38:05.846Z,100.00
2023-01-17T19:40:32.623Z,100.00
2023-01-17T19:42:59.161Z,100.00
2023-01-17T19:45:25.969Z,100.00
2023-01-17T19:47:52.497Z,100.00
2023-01-17T19:50:19.179Z,100.00
2023-01-17T19:52:45.690Z,100.00
2023-01-17T19:55:12.203Z,99.94
2023-01-17T19:57:40.432Z,100.00
2023-01-17T20:00:13.141Z,100.00
2023-01-17T20:02:40.100Z,100.00
2023-01-17T20:05:07.225Z,100.00
2023-01-17T20:07:33.922Z,99.85
2023-01-17T20:10:00.447Z,99.87
2023-01-17T20:12:26.997Z,99.73
2023-01-17T20:14:54.358Z,99.76
2023-01-17T20:17:21.218Z,99.46
2023-01-17T20:19:47.694Z,99.27
2023-01-17T20:22:14.128Z,99.25
2023-01-17T20:24:40.556Z,99.41
2023-01-17T20:27:07.509Z,98.99
2023-01-17T20:29:34.050Z,99.19
2023-01-17T20:32:00.655Z,99.16
2023-01-17T20:34:27.280Z,99.24
2023-01-17T20:36:54.999Z,99.01
2023-01-17T20:39:21.517Z,98.73
2023-01-17T20:41:49.697Z,98.73
2023-01-17T20:44:16.338Z,98.62
2023-01-17T20:46:43.251Z,99.06
2023-01-17T20:49:15.946Z,98.82
2023-01-17T20:51:43.948Z,99.00
2023-01-17T20:54:13.683Z,98.74
2023-01-17T20:56:40.854Z,99.04
2023-01-17T20:59:11.502Z,98.78
2023-01-17T21:01:38.332Z,98.55
2023-01-17T21:04:09.981Z,99.24
2023-01-17T21:06:38.728Z,98.64
2023-01-17T21:09:07.174Z,98.83
2023-01-17T21:11:34.347Z,98.96
2023-01-17T21:14:01.570Z,98.86
2023-01-17T21:16:28.212Z,98.77
2023-01-17T21:18:54.868Z,98.46
2023-01-17T21:21:24.172Z,98.99
2023-01-17T21:23:52.186Z,98.78
2023-01-17T21:26:19.694Z,98.63
2023-01-17T21:28:48.378Z,99.03
2023-01-17T21:31:24.364Z,99.18
2023-01-17T21:33:53.836Z,98.80
2023-01-17T21:36:23.090Z,98.96
2023-01-17T21:38:56.808Z,98.95
2023-01-17T21:41:29.151Z,98.79
2023-01-17T21:43:58.107Z,99.19
2023-01-17T21:46:25.230Z,99.19
2023-01-17T21:48:51.702Z,98.80
2023-01-17T21:51:21.793Z,99.14
2023-01-17T21:53:48.679Z,98.88
2023-01-17T21:56:33.716Z,99.07
2023-01-17T21:59:00.597Z,98.94
2023-01-17T22:01:30.117Z,99.42
2023-01-17T22:03:58.534Z,98.91
2023-01-17T22:06:28.272Z,99.10
2023-01-17T22:08:54.789Z,99.18
2023-01-17T22:11:23.700Z,99.04
2023-01-17T22:13:50.525Z,98.90
2023-01-17T22:16:19.614Z,98.87
2023-01-17T22:18:46.576Z,99.30
2023-01-17T22:21:16.640Z,98.98
2023-01-17T22:23:53.992Z,98.79
2023-01-17T22:26:22.345Z,99.13
2023-01-17T22:28:48.887Z,99.04
2023-01-17T22:31:20.696Z,99.32
2023-01-17T22:33:51.587Z,99.48
2023-01-17T22:36:18.040Z,99.74
2023-01-17T22:38:44.693Z,99.88
2023-01-17T22:41:15.826Z,100.00
2023-01-17T22:43:44.751Z,99.84
2023-01-17T22:46:14.732Z,100.00
2023-01-17T22:48:41.941Z,99.98
2023-01-17T22:51:11.694Z,100.00
2023-01-17T22:53:53.184Z,99.83
2023-01-17T22:56:22.188Z,99.87
2023-01-17T22:58:49.576Z,100.00
2023-01-17T23:01:21.405Z,99.60
2023-01-17T23:03:53.505Z,99.71
2023-01-17T23:06:22.871Z,100.00
2023-01-17T23:08:50.815Z,100.00
2023-01-17T23:11:38.797Z,99.37
2023-01-17T23:14:07.074Z,99.68
2023-01-17T23:16:52.009Z,99.42
2023-01-17T23:19:24.398Z,99.57
2023-01-17T23:22:15.389Z,99.61
2023-01-17T23:25:05.247Z,99.71
2023-01-17T23:27:50.179Z,99.71
2023-01-17T23:30:37.338Z,99.72
2023-01-17T23:33:09.298Z,99.75
2023-01-17T23:35:41.778Z,100.00
2023-01-17T23:38:33.533Z,100.00
2023-01-17T23:41:21.577Z,100.00
2023-01-17T23:43:55.472Z,100.00
2023-01-17T23:46:23.885Z,100.00
2023-01-17T23:48:50.638Z,100.00
2023-01-17T23:51:17.285Z,100.00
2023-01-17T23:53:43.789Z,100.00
2023-01-17T23:56:30.683Z,100.00
2023-01-17T23:58:57.752Z,100.00
